sensor_id;sensor_type;location;lat;lon;timestamp;P1;durP1;ratioP1;P2;durP2;ratioP2
70297;SDS011;57702;44.420;20.298;2023-02-15T00:01:15;47.30;;;15.90;;
70297;SDS011;57702;44.420;20.298;2023-02-15T00:03:41;46.15;;;16.77;;
70297;SDS011;57702;44.420;20.298;2023-02-15T00:06:07;48.15;;;17.70;;
70297;SDS011;57702;44.420;20.298;2023-02-15T00:08:34;53.33;;;15.77;;
70297;SDS011;57702;44.420;20.298;2023-02-15T00:11:10;56.15;;;14.73;;
70297;SDS011;57702;44.420;20.298;2023-02-15T00:13:37;75.88;;;18.10;;
70297;SDS011;57702;44.420;20.298;2023-02-15T00:16:07;74.25;;;23.52;;
70297;SDS011;57702;44.420;20.298;2023-02-15T00:18:33;62.47;;;15.35;;
70297;SDS011;57702;44.420;20.298;2023-02-15T00:21:03;48.63;;;15.27;;
70297;SDS011;57702;44.420;20.298;2023-02-15T00:23:30;41.72;;;14.18;;
70297;SDS011;57702;44.420;20.298;2023-02-15T00:26:03;54.53;;;16.27;;
70297;SDS011;57702;44.420;20.298;2023-02-15T00:28:30;43.28;;;13.30;;
70297;SDS011;57702;44.420;20.298;2023-02-15T00:31:01;47.28;;;18.50;;
70297;SDS011;57702;44.420;20.298;2023-02-15T00:33:28;52.95;;;14.05;;
70297;SDS011;57702;44.420;20.298;2023-02-15T00:36:00;36.10;;;13.55;;
70297;SDS011;57702;44.420;20.298;2023-02-15T00:38:27;27.98;;;11.90;;
70297;SDS011;57702;44.420;20.298;2023-02-15T00:40:54;50.88;;;16.25;;
70297;SDS011;57702;44.420;20.298;2023-02-15T00:43:20;63.33;;;17.17;;
70297;SDS011;57702;44.420;20.298;2023-02-15T00:45:49;41.75;;;13.60;;
70297;SDS011;57702;44.420;20.298;2023-02-15T00:48:16;35.47;;;12.43;;
70297;SDS011;57702;44.420;20.298;2023-02-15T00:50:44;50.65;;;14.07;;
70297;SDS011;57702;44.420;20.298;2023-02-15T00:53:11;49.58;;;15.00;;
70297;SDS011;57702;44.420;20.298;2023-02-15T00:55:37;18.77;;;8.55;;
70297;SDS011;57702;44.420;20.298;2023-02-15T00:58:05;40.33;;;11.75;;
70297;SDS011;57702;44.420;20.298;2023-02-15T01:00:32;32.53;;;13.68;;
70297;SDS011;57702;44.420;20.298;2023-02-15T01:02:58;43.17;;;13.18;;
70297;SDS011;57702;44.420;20.298;2023-02-15T01:05:24;33.10;;;12.32;;
70297;SDS011;57702;44.420;20.298;2023-02-15T01:07:50;21.70;;;12.20;;
70297;SDS011;57702;44.420;20.298;2023-02-15T01:10:16;27.67;;;12.23;;
70297;SDS011;57702;44.420;20.298;2023-02-15T01:12:43;31.75;;;11.68;;
70297;SDS011;57702;44.420;20.298;2023-02-15T01:15:09;46.85;;;13.95;;
70297;SDS011;57702;44.420;20.298;2023-02-15T01:17:35;26.85;;;9.55;;
70297;SDS011;57702;44.420;20.298;2023-02-15T01:20:02;37.17;;;11.55;;
70297;SDS011;57702;44.420;20.298;2023-02-15T01:22:28;31.52;;;11.82;;
70297;SDS011;57702;44.420;20.298;2023-02-15T01:24:54;36.05;;;13.63;;
70297;SDS011;57702;44.420;20.298;2023-02-15T01:27:20;38.28;;;12.73;;
70297;SDS011;57702;44.420;20.298;2023-02-15T01:29:47;38.95;;;14.52;;
70297;SDS011;57702;44.420;20.298;2023-02-15T01:32:13;22.70;;;11.13;;
70297;SDS011;57702;44.420;20.298;2023-02-15T01:34:39;31.15;;;13.75;;
70297;SDS011;57702;44.420;20.298;2023-02-15T01:37:05;26.20;;;12.52;;
70297;SDS011;57702;44.420;20.298;2023-02-15T01:39:31;22.88;;;9.95;;
70297;SDS011;57702;44.420;20.298;2023-02-15T01:41:57;44.58;;;13.30;;
70297;SDS011;57702;44.420;20.298;2023-02-15T01:47:12;30.65;;;14.07;;
70297;SDS011;57702;44.420;20.298;2023-02-15T01:49:39;35.95;;;12.07;;
70297;SDS011;57702;44.420;20.298;2023-02-15T01:52:07;25.92;;;11.15;;
70297;SDS011;57702;44.420;20.298;2023-02-15T01:54:34;17.80;;;11.30;;
70297;SDS011;57702;44.420;20.298;2023-02-15T01:57:03;21.40;;;9.50;;
70297;SDS011;57702;44.420;20.298;2023-02-15T01:59:30;47.65;;;14.13;;
70297;SDS011;57702;44.420;20.298;2023-02-15T02:01:57;28.77;;;9.93;;
70297;SDS011;57702;44.420;20.298;2023-02-15T02:04:25;35.30;;;11.02;;
70297;SDS011;57702;44.420;20.298;2023-02-15T02:06:58;37.60;;;11.80;;
70297;SDS011;57702;44.420;20.298;2023-02-15T02:09:25;19.77;;;9.00;;
70297;SDS011;57702;44.420;20.298;2023-02-15T02:11:52;38.42;;;11.00;;
70297;SDS011;57702;44.420;20.298;2023-02-15T02:14:19;20.10;;;8.02;;
70297;SDS011;57702;44.420;20.298;2023-02-15T02:30:13;15.70;;;8.40;;
70297;SDS011;57702;44.420;20.298;2023-02-15T02:35:11;14.18;;;6.95;;
70297;SDS011;57702;44.420;20.298;2023-02-15T02:37:45;22.50;;;8.93;;
70297;SDS011;57702;44.420;20.298;2023-02-15T02:40:20;20.52;;;9.60;;
70297;SDS011;57702;44.420;20.298;2023-02-15T02:42:50;31.85;;;10.32;;
70297;SDS011;57702;44.420;20.298;2023-02-15T02:45:23;16.45;;;9.65;;
70297;SDS011;57702;44.420;20.298;2023-02-15T02:47:53;28.30;;;8.57;;
70297;SDS011;57702;44.420;20.298;2023-02-15T02:50:25;30.60;;;12.68;;
70297;SDS011;57702;44.420;20.298;2023-02-15T02:52:52;15.70;;;10.40;;
70297;SDS011;57702;44.420;20.298;2023-02-15T02:57:48;24.42;;;10.73;;
70297;SDS011;57702;44.420;20.298;2023-02-15T03:00:18;12.55;;;8.77;;
70297;SDS011;57702;44.420;20.298;2023-02-15T03:02:45;49.47;;;15.00;;
70297;SDS011;57702;44.420;20.298;2023-02-15T03:05:15;29.15;;;11.52;;
70297;SDS011;57702;44.420;20.298;2023-02-15T03:07:42;19.85;;;9.57;;
70297;SDS011;57702;44.420;20.298;2023-02-15T03:10:09;17.02;;;8.93;;
70297;SDS011;57702;44.420;20.298;2023-02-15T03:12:36;11.63;;;6.38;;
70297;SDS011;57702;44.420;20.298;2023-02-15T03:15:06;28.00;;;10.75;;
70297;SDS011;57702;44.420;20.298;2023-02-15T03:20:06;35.67;;;10.75;;
70297;SDS011;57702;44.420;20.298;2023-02-15T03:22:36;25.38;;;12.80;;
70297;SDS011;57702;44.420;20.298;2023-02-15T03:25:10;29.75;;;11.20;;
70297;SDS011;57702;44.420;20.298;2023-02-15T03:27:38;19.42;;;8.77;;
70297;SDS011;57702;44.420;20.298;2023-02-15T03:30:06;28.50;;;10.40;;
70297;SDS011;57702;44.420;20.298;2023-02-15T03:32:33;36.92;;;10.73;;
70297;SDS011;57702;44.420;20.298;2023-02-15T03:35:00;49.03;;;12.40;;
70297;SDS011;57702;44.420;20.298;2023-02-15T03:37:28;22.52;;;10.80;;
70297;SDS011;57702;44.420;20.298;2023-02-15T03:40:20;24.83;;;8.57;;
70297;SDS011;57702;44.420;20.298;2023-02-15T03:45:45;16.97;;;6.53;;
70297;SDS011;57702;44.420;20.298;2023-02-15T03:48:21;20.95;;;8.80;;
70297;SDS011;57702;44.420;20.298;2023-02-15T03:50:48;34.40;;;12.73;;
70297;SDS011;57702;44.420;20.298;2023-02-15T03:53:34;42.63;;;10.57;;
70297;SDS011;57702;44.420;20.298;2023-02-15T03:56:00;26.92;;;8.13;;
70297;SDS011;57702;44.420;20.298;2023-02-15T03:58:27;17.80;;;9.38;;
70297;SDS011;57702;44.420;20.298;2023-02-15T04:01:31;14.63;;;7.25;;
70297;SDS011;57702;44.420;20.298;2023-02-15T04:04:22;13.05;;;8.65;;
70297;SDS011;57702;44.420;20.298;2023-02-15T04:06:49;28.98;;;9.73;;
70297;SDS011;57702;44.420;20.298;2023-02-15T04:09:15;44.47;;;9.82;;
70297;SDS011;57702;44.420;20.298;2023-02-15T04:12:00;28.48;;;9.18;;
70297;SDS011;57702;44.420;20.298;2023-02-15T04:14:26;36.78;;;10.68;;
70297;SDS011;57702;44.420;20.298;2023-02-15T04:17:11;30.23;;;9.73;;
70297;SDS011;57702;44.420;20.298;2023-02-15T04:19:37;29.52;;;8.80;;
70297;SDS011;57702;44.420;20.298;2023-02-15T04:22:22;27.25;;;8.77;;
70297;SDS011;57702;44.420;20.298;2023-02-15T04:25:07;23.50;;;9.10;;
70297;SDS011;57702;44.420;20.298;2023-02-15T04:30:08;15.90;;;8.68;;
70297;SDS011;57702;44.420;20.298;2023-02-15T04:32:35;22.42;;;8.30;;
70297;SDS011;57702;44.420;20.298;2023-02-15T04:35:02;21.83;;;9.25;;
70297;SDS011;57702;44.420;20.298;2023-02-15T04:37:28;19.88;;;7.80;;
70297;SDS011;57702;44.420;20.298;2023-02-15T04:39:54;29.02;;;8.20;;
70297;SDS011;57702;44.420;20.298;2023-02-15T04:42:21;18.27;;;10.23;;
70297;SDS011;57702;44.420;20.298;2023-02-15T04:44:47;32.53;;;9.23;;
70297;SDS011;57702;44.420;20.298;2023-02-15T04:47:13;18.38;;;7.72;;
70297;SDS011;57702;44.420;20.298;2023-02-15T04:49:39;18.90;;;10.55;;
70297;SDS011;57702;44.420;20.298;2023-02-15T04:52:05;21.98;;;10.32;;
70297;SDS011;57702;44.420;20.298;2023-02-15T04:54:32;27.13;;;9.32;;
70297;SDS011;57702;44.420;20.298;2023-02-15T04:56:58;28.63;;;10.52;;
70297;SDS011;57702;44.420;20.298;2023-02-15T04:59:24;26.80;;;8.73;;
70297;SDS011;57702;44.420;20.298;2023-02-15T05:01:50;27.67;;;9.75;;
70297;SDS011;57702;44.420;20.298;2023-02-15T05:04:16;15.98;;;7.38;;
70297;SDS011;57702;44.420;20.298;2023-02-15T05:06:43;14.60;;;7.20;;
70297;SDS011;57702;44.420;20.298;2023-02-15T05:09:10;14.80;;;8.48;;
70297;SDS011;57702;44.420;20.298;2023-02-15T05:11:36;25.98;;;9.52;;
70297;SDS011;57702;44.420;20.298;2023-02-15T05:14:02;33.88;;;10.20;;
70297;SDS011;57702;44.420;20.298;2023-02-15T05:16:29;17.00;;;9.13;;
70297;SDS011;57702;44.420;20.298;2023-02-15T05:18:55;16.20;;;7.90;;
70297;SDS011;57702;44.420;20.298;2023-02-15T05:21:21;21.80;;;8.07;;
70297;SDS011;57702;44.420;20.298;2023-02-15T05:23:48;19.55;;;7.00;;
70297;SDS011;57702;44.420;20.298;2023-02-15T05:26:18;15.80;;;9.55;;
70297;SDS011;57702;44.420;20.298;2023-02-15T05:29:03;13.43;;;6.93;;
70297;SDS011;57702;44.420;20.298;2023-02-15T05:31:30;25.52;;;9.00;;
70297;SDS011;57702;44.420;20.298;2023-02-15T05:33:56;9.00;;;6.80;;
70297;SDS011;57702;44.420;20.298;2023-02-15T05:36:23;30.58;;;12.00;;
70297;SDS011;57702;44.420;20.298;2023-02-15T05:38:49;19.15;;;10.27;;
70297;SDS011;57702;44.420;20.298;2023-02-15T05:41:15;22.90;;;10.77;;
70297;SDS011;57702;44.420;20.298;2023-02-15T05:43:42;36.53;;;13.73;;
70297;SDS011;57702;44.420;20.298;2023-02-15T05:46:08;27.42;;;12.52;;
70297;SDS011;57702;44.420;20.298;2023-02-15T05:48:35;25.63;;;9.18;;
70297;SDS011;57702;44.420;20.298;2023-02-15T05:51:05;17.77;;;9.73;;
70297;SDS011;57702;44.420;20.298;2023-02-15T05:53:32;31.23;;;10.50;;
70297;SDS011;57702;44.420;20.298;2023-02-15T05:55:59;27.38;;;11.93;;
70297;SDS011;57702;44.420;20.298;2023-02-15T05:58:28;45.70;;;13.85;;
70297;SDS011;57702;44.420;20.298;2023-02-15T06:00:54;29.17;;;14.88;;
70297;SDS011;57702;44.420;20.298;2023-02-15T06:03:21;19.48;;;10.00;;
70297;SDS011;57702;44.420;20.298;2023-02-15T06:05:47;26.10;;;11.82;;
70297;SDS011;57702;44.420;20.298;2023-02-15T06:08:13;36.50;;;13.90;;
70297;SDS011;57702;44.420;20.298;2023-02-15T06:10:40;35.90;;;15.02;;
70297;SDS011;57702;44.420;20.298;2023-02-15T06:13:06;47.70;;;16.88;;
70297;SDS011;57702;44.420;20.298;2023-02-15T06:15:33;33.50;;;13.10;;
70297;SDS011;57702;44.420;20.298;2023-02-15T06:17:59;37.03;;;12.63;;
70297;SDS011;57702;44.420;20.298;2023-02-15T06:20:25;41.95;;;15.20;;
70297;SDS011;57702;44.420;20.298;2023-02-15T06:22:52;39.53;;;14.70;;
70297;SDS011;57702;44.420;20.298;2023-02-15T06:25:18;36.75;;;14.00;;
70297;SDS011;57702;44.420;20.298;2023-02-15T06:27:44;77.65;;;23.17;;
70297;SDS011;57702;44.420;20.298;2023-02-15T06:30:10;53.65;;;21.20;;
70297;SDS011;57702;44.420;20.298;2023-02-15T06:32:37;43.08;;;20.23;;
70297;SDS011;57702;44.420;20.298;2023-02-15T06:35:03;44.28;;;16.27;;
70297;SDS011;57702;44.420;20.298;2023-02-15T06:37:29;54.05;;;19.77;;
70297;SDS011;57702;44.420;20.298;2023-02-15T06:39:56;32.75;;;16.17;;
70297;SDS011;57702;44.420;20.298;2023-02-15T06:42:23;41.38;;;14.23;;
70297;SDS011;57702;44.420;20.298;2023-02-15T06:44:50;48.55;;;15.52;;
70297;SDS011;57702;44.420;20.298;2023-02-15T06:47:16;40.22;;;18.42;;
70297;SDS011;57702;44.420;20.298;2023-02-15T06:49:42;58.20;;;18.02;;
70297;SDS011;57702;44.420;20.298;2023-02-15T06:52:08;66.50;;;17.50;;
70297;SDS011;57702;44.420;20.298;2023-02-15T06:54:35;59.53;;;18.15;;
70297;SDS011;57702;44.420;20.298;2023-02-15T06:57:01;37.83;;;17.55;;
70297;SDS011;57702;44.420;20.298;2023-02-15T06:59:27;40.40;;;16.08;;
70297;SDS011;57702;44.420;20.298;2023-02-15T07:01:54;41.75;;;17.15;;
70297;SDS011;57702;44.420;20.298;2023-02-15T07:04:20;41.92;;;18.15;;
70297;SDS011;57702;44.420;20.298;2023-02-15T07:06:46;54.88;;;20.90;;
70297;SDS011;57702;44.420;20.298;2023-02-15T07:09:12;69.47;;;19.45;;
70297;SDS011;57702;44.420;20.298;2023-02-15T07:11:38;66.80;;;21.67;;
70297;SDS011;57702;44.420;20.298;2023-02-15T07:14:23;58.33;;;17.30;;
70297;SDS011;57702;44.420;20.298;2023-02-15T07:16:49;41.85;;;19.40;;
70297;SDS011;57702;44.420;20.298;2023-02-15T07:19:15;59.28;;;19.02;;
70297;SDS011;57702;44.420;20.298;2023-02-15T07:21:42;64.88;;;20.10;;
70297;SDS011;57702;44.420;20.298;2023-02-15T07:24:10;46.65;;;18.92;;
70297;SDS011;57702;44.420;20.298;2023-02-15T07:26:36;43.08;;;19.00;;
70297;SDS011;57702;44.420;20.298;2023-02-15T07:29:02;66.90;;;18.40;;
70297;SDS011;57702;44.420;20.298;2023-02-15T07:31:29;37.20;;;14.75;;
70297;SDS011;57702;44.420;20.298;2023-02-15T07:33:55;23.05;;;11.85;;
70297;SDS011;57702;44.420;20.298;2023-02-15T07:36:22;22.35;;;11.38;;
70297;SDS011;57702;44.420;20.298;2023-02-15T07:38:48;16.45;;;8.23;;
70297;SDS011;57702;44.420;20.298;2023-02-15T07:41:14;25.55;;;10.00;;
70297;SDS011;57702;44.420;20.298;2023-02-15T07:43:41;42.55;;;15.05;;
70297;SDS011;57702;44.420;20.298;2023-02-15T07:46:09;33.17;;;11.43;;
70297;SDS011;57702;44.420;20.298;2023-02-15T07:48:37;32.25;;;11.32;;
70297;SDS011;57702;44.420;20.298;2023-02-15T07:51:04;36.50;;;14.32;;
70297;SDS011;57702;44.420;20.298;2023-02-15T07:53:30;22.60;;;9.38;;
70297;SDS011;57702;44.420;20.298;2023-02-15T07:56:00;23.02;;;9.63;;
70297;SDS011;57702;44.420;20.298;2023-02-15T07:58:27;43.70;;;15.90;;
70297;SDS011;57702;44.420;20.298;2023-02-15T08:01:12;14.75;;;10.05;;
70297;SDS011;57702;44.420;20.298;2023-02-15T08:03:38;22.70;;;11.43;;
70297;SDS011;57702;44.420;20.298;2023-02-15T08:06:05;10.57;;;6.57;;
70297;SDS011;57702;44.420;20.298;2023-02-15T08:08:33;13.85;;;7.78;;
70297;SDS011;57702;44.420;20.298;2023-02-15T08:11:42;10.13;;;7.00;;
70297;SDS011;57702;44.420;20.298;2023-02-15T08:14:17;14.02;;;7.50;;
70297;SDS011;57702;44.420;20.298;2023-02-15T08:16:44;7.88;;;4.65;;
70297;SDS011;57702;44.420;20.298;2023-02-15T08:19:12;10.27;;;4.82;;
70297;SDS011;57702;44.420;20.298;2023-02-15T08:21:40;7.55;;;3.65;;
70297;SDS011;57702;44.420;20.298;2023-02-15T08:24:07;11.60;;;3.60;;
70297;SDS011;57702;44.420;20.298;2023-02-15T08:26:35;20.35;;;5.55;;
70297;SDS011;57702;44.420;20.298;2023-02-15T08:29:01;7.30;;;3.35;;
70297;SDS011;57702;44.420;20.298;2023-02-15T08:31:28;16.58;;;6.85;;
70297;SDS011;57702;44.420;20.298;2023-02-15T08:33:55;15.82;;;5.95;;
70297;SDS011;57702;44.420;20.298;2023-02-15T08:36:22;18.33;;;6.70;;
70297;SDS011;57702;44.420;20.298;2023-02-15T08:38:49;14.68;;;7.72;;
70297;SDS011;57702;44.420;20.298;2023-02-15T08:41:22;18.95;;;5.07;;
70297;SDS011;57702;44.420;20.298;2023-02-15T08:43:50;4.20;;;3.55;;
70297;SDS011;57702;44.420;20.298;2023-02-15T08:46:17;13.43;;;4.75;;
70297;SDS011;57702;44.420;20.298;2023-02-15T08:48:44;6.35;;;4.43;;
70297;SDS011;57702;44.420;20.298;2023-02-15T08:51:11;13.35;;;5.82;;
70297;SDS011;57702;44.420;20.298;2023-02-15T08:53:38;17.85;;;6.88;;
70297;SDS011;57702;44.420;20.298;2023-02-15T08:56:05;15.10;;;4.80;;
70297;SDS011;57702;44.420;20.298;2023-02-15T08:58:32;14.52;;;7.68;;
70297;SDS011;57702;44.420;20.298;2023-02-15T09:00:58;17.08;;;7.55;;
70297;SDS011;57702;44.420;20.298;2023-02-15T09:03:24;16.58;;;6.70;;
70297;SDS011;57702;44.420;20.298;2023-02-15T09:05:57;19.75;;;7.80;;
70297;SDS011;57702;44.420;20.298;2023-02-15T09:08:24;22.92;;;7.20;;
70297;SDS011;57702;44.420;20.298;2023-02-15T09:10:50;14.75;;;7.13;;
70297;SDS011;57702;44.420;20.298;2023-02-15T09:13:17;31.13;;;8.00;;
70297;SDS011;57702;44.420;20.298;2023-02-15T09:15:43;17.25;;;7.82;;
70297;SDS011;57702;44.420;20.298;2023-02-15T09:18:09;8.38;;;5.95;;
70297;SDS011;57702;44.420;20.298;2023-02-15T09:20:37;18.70;;;8.30;;
70297;SDS011;57702;44.420;20.298;2023-02-15T09:23:03;19.95;;;7.28;;
70297;SDS011;57702;44.420;20.298;2023-02-15T09:25:29;11.98;;;6.10;;
70297;SDS011;57702;44.420;20.298;2023-02-15T09:27:55;22.08;;;7.85;;
70297;SDS011;57702;44.420;20.298;2023-02-15T09:30:22;15.45;;;8.02;;
70297;SDS011;57702;44.420;20.298;2023-02-15T09:32:48;39.13;;;13.30;;
70297;SDS011;57702;44.420;20.298;2023-02-15T09:35:15;42.13;;;14.85;;
70297;SDS011;57702;44.420;20.298;2023-02-15T09:37:41;22.05;;;11.30;;
70297;SDS011;57702;44.420;20.298;2023-02-15T09:40:07;29.00;;;12.65;;
70297;SDS011;57702;44.420;20.298;2023-02-15T09:42:41;28.38;;;15.32;;
70297;SDS011;57702;44.420;20.298;2023-02-15T09:50:52;8.15;;;5.20;;
70297;SDS011;57702;44.420;20.298;2023-02-15T09:56:06;10.63;;;4.45;;
70297;SDS011;57702;44.420;20.298;2023-02-15T09:58:43;10.13;;;6.15;;
70297;SDS011;57702;44.420;20.298;2023-02-15T10:03:46;16.05;;;7.00;;
70297;SDS011;57702;44.420;20.298;2023-02-15T10:26:45;7.07;;;3.35;;
70297;SDS011;57702;44.420;20.298;2023-02-15T10:29:19;9.88;;;3.67;;
70297;SDS011;57702;44.420;20.298;2023-02-15T10:31:49;7.68;;;3.88;;
70297;SDS011;57702;44.420;20.298;2023-02-15T10:39:36;9.73;;;4.78;;
70297;SDS011;57702;44.420;20.298;2023-02-15T10:42:12;8.75;;;3.95;;
70297;SDS011;57702;44.420;20.298;2023-02-15T10:47:20;7.93;;;3.50;;
70297;SDS011;57702;44.420;20.298;2023-02-15T10:55:49;12.45;;;3.35;;
70297;SDS011;57702;44.420;20.298;2023-02-15T11:00:23;8.20;;;3.63;;
70297;SDS011;57702;44.420;20.298;2023-02-15T11:07:58;6.45;;;3.92;;
70297;SDS011;57702;44.420;20.298;2023-02-15T11:12:54;6.82;;;4.30;;
70297;SDS011;57702;44.420;20.298;2023-02-15T11:15:25;13.68;;;5.85;;
70297;SDS011;57702;44.420;20.298;2023-02-15T11:17:59;5.63;;;4.00;;
70297;SDS011;57702;44.420;20.298;2023-02-15T11:20:32;7.05;;;4.57;;
70297;SDS011;57702;44.420;20.298;2023-02-15T11:23:01;5.57;;;2.97;;
70297;SDS011;57702;44.420;20.298;2023-02-15T11:25:31;5.93;;;5.15;;
70297;SDS011;57702;44.420;20.298;2023-02-15T11:28:00;9.63;;;4.68;;
70297;SDS011;57702;44.420;20.298;2023-02-15T11:30:33;5.93;;;3.53;;
70297;SDS011;57702;44.420;20.298;2023-02-15T11:33:04;6.18;;;3.55;;
70297;SDS011;57702;44.420;20.298;2023-02-15T11:38:03;6.70;;;5.88;;
70297;SDS011;57702;44.420;20.298;2023-02-15T11:43:16;14.38;;;6.05;;
70297;SDS011;57702;44.420;20.298;2023-02-15T11:45:44;6.82;;;4.30;;
70297;SDS011;57702;44.420;20.298;2023-02-15T11:48:12;8.85;;;5.18;;
70297;SDS011;57702;44.420;20.298;2023-02-15T11:50:38;5.20;;;3.63;;
70297;SDS011;57702;44.420;20.298;2023-02-15T11:53:26;5.95;;;3.97;;
70297;SDS011;57702;44.420;20.298;2023-02-15T11:55:53;4.65;;;3.58;;
70297;SDS011;57702;44.420;20.298;2023-02-15T12:00:46;4.63;;;3.55;;
70297;SDS011;57702;44.420;20.298;2023-02-15T12:04:16;24.73;;;3.25;;
70297;SDS011;57702;44.420;20.298;2023-02-15T12:06:23;4.03;;;3.63;;
70297;SDS011;57702;44.420;20.298;2023-02-15T12:11:25;8.63;;;5.20;;
70297;SDS011;57702;44.420;20.298;2023-02-15T12:13:58;5.38;;;3.70;;
70297;SDS011;57702;44.420;20.298;2023-02-15T12:16:25;11.25;;;5.30;;
70297;SDS011;57702;44.420;20.298;2023-02-15T12:18:52;8.25;;;4.15;;
70297;SDS011;57702;44.420;20.298;2023-02-15T12:21:29;14.70;;;3.92;;
70297;SDS011;57702;44.420;20.298;2023-02-15T12:24:03;17.17;;;5.13;;
70297;SDS011;57702;44.420;20.298;2023-02-15T12:26:35;22.40;;;3.80;;
70297;SDS011;57702;44.420;20.298;2023-02-15T12:29:07;3.20;;;2.25;;
70297;SDS011;57702;44.420;20.298;2023-02-15T12:31:39;7.68;;;3.13;;
70297;SDS011;57702;44.420;20.298;2023-02-15T12:34:14;6.30;;;3.50;;
70297;SDS011;57702;44.420;20.298;2023-02-15T12:36:47;7.20;;;3.47;;
70297;SDS011;57702;44.420;20.298;2023-02-15T12:39:19;4.80;;;3.85;;
70297;SDS011;57702;44.420;20.298;2023-02-15T12:44:20;6.45;;;2.80;;
70297;SDS011;57702;44.420;20.298;2023-02-15T12:46:58;6.22;;;2.83;;
70297;SDS011;57702;44.420;20.298;2023-02-15T12:49:25;9.95;;;5.10;;
70297;SDS011;57702;44.420;20.298;2023-02-15T12:51:56;7.85;;;2.88;;
70297;SDS011;57702;44.420;20.298;2023-02-15T12:54:34;12.33;;;4.80;;
70297;SDS011;57702;44.420;20.298;2023-02-15T12:57:12;8.07;;;4.68;;
70297;SDS011;57702;44.420;20.298;2023-02-15T12:59:53;12.70;;;4.70;;
70297;SDS011;57702;44.420;20.298;2023-02-15T13:02:24;7.80;;;3.90;;
70297;SDS011;57702;44.420;20.298;2023-02-15T13:04:51;8.15;;;4.30;;
70297;SDS011;57702;44.420;20.298;2023-02-15T13:07:18;5.93;;;3.75;;
70297;SDS011;57702;44.420;20.298;2023-02-15T13:09:45;8.32;;;3.60;;
70297;SDS011;57702;44.420;20.298;2023-02-15T13:12:20;2.47;;;2.00;;
70297;SDS011;57702;44.420;20.298;2023-02-15T13:14:49;6.30;;;4.05;;
70297;SDS011;57702;44.420;20.298;2023-02-15T13:17:17;5.20;;;4.28;;
70297;SDS011;57702;44.420;20.298;2023-02-15T13:19:51;7.38;;;4.25;;
70297;SDS011;57702;44.420;20.298;2023-02-15T13:22:20;8.02;;;2.95;;
70297;SDS011;57702;44.420;20.298;2023-02-15T13:24:48;9.88;;;5.63;;
70297;SDS011;57702;44.420;20.298;2023-02-15T13:27:16;6.18;;;3.50;;
70297;SDS011;57702;44.420;20.298;2023-02-15T13:29:46;4.68;;;3.35;;
70297;SDS011;57702;44.420;20.298;2023-02-15T13:34:46;11.02;;;4.82;;
70297;SDS011;57702;44.420;20.298;2023-02-15T13:55:44;3.42;;;2.88;;
70297;SDS011;57702;44.420;20.298;2023-02-15T14:06:00;4.35;;;2.95;;
70297;SDS011;57702;44.420;20.298;2023-02-15T14:11:21;4.82;;;3.03;;
70297;SDS011;57702;44.420;20.298;2023-02-15T14:21:34;17.33;;;6.22;;
70297;SDS011;57702;44.420;20.298;2023-02-15T14:24:07;11.38;;;5.13;;
70297;SDS011;57702;44.420;20.298;2023-02-15T14:26:38;7.35;;;4.03;;
70297;SDS011;57702;44.420;20.298;2023-02-15T14:29:14;26.30;;;4.05;;
70297;SDS011;57702;44.420;20.298;2023-02-15T14:31:43;7.38;;;3.28;;
70297;SDS011;57702;44.420;20.298;2023-02-15T14:34:17;9.23;;;3.92;;
70297;SDS011;57702;44.420;20.298;2023-02-15T14:36:45;10.43;;;5.07;;
70297;SDS011;57702;44.420;20.298;2023-02-15T14:42:04;7.22;;;3.75;;
70297;SDS011;57702;44.420;20.298;2023-02-15T14:44:37;7.40;;;4.20;;
70297;SDS011;57702;44.420;20.298;2023-02-15T14:47:20;7.82;;;3.92;;
70297;SDS011;57702;44.420;20.298;2023-02-15T14:52:14;10.70;;;4.63;;
70297;SDS011;57702;44.420;20.298;2023-02-15T15:02:24;12.40;;;5.68;;
70297;SDS011;57702;44.420;20.298;2023-02-15T15:10:07;7.47;;;3.35;;
70297;SDS011;57702;44.420;20.298;2023-02-15T15:12:41;6.05;;;3.08;;
70297;SDS011;57702;44.420;20.298;2023-02-15T15:15:11;15.35;;;4.90;;
70297;SDS011;57702;44.420;20.298;2023-02-15T15:22:48;15.55;;;4.10;;
70297;SDS011;57702;44.420;20.298;2023-02-15T15:27:59;5.18;;;3.67;;
70297;SDS011;57702;44.420;20.298;2023-02-15T15:30:46;29.25;;;4.30;;
70297;SDS011;57702;44.420;20.298;2023-02-15T15:33:56;10.20;;;4.30;;
70297;SDS011;57702;44.420;20.298;2023-02-15T15:49:20;12.07;;;4.60;;
70297;SDS011;57702;44.420;20.298;2023-02-15T15:51:47;6.07;;;3.53;;
70297;SDS011;57702;44.420;20.298;2023-02-15T15:54:18;15.88;;;4.97;;
70297;SDS011;57702;44.420;20.298;2023-02-15T15:56:55;10.27;;;6.33;;
70297;SDS011;57702;44.420;20.298;2023-02-15T15:59:24;10.00;;;4.75;;
70297;SDS011;57702;44.420;20.298;2023-02-15T16:01:50;22.33;;;4.75;;
70297;SDS011;57702;44.420;20.298;2023-02-15T16:04:24;13.13;;;5.22;;
70297;SDS011;57702;44.420;20.298;2023-02-15T16:06:51;17.00;;;5.82;;
70297;SDS011;57702;44.420;20.298;2023-02-15T16:11:45;16.33;;;5.05;;
70297;SDS011;57702;44.420;20.298;2023-02-15T16:14:12;8.82;;;3.83;;
70297;SDS011;57702;44.420;20.298;2023-02-15T16:16:39;14.63;;;5.45;;
70297;SDS011;57702;44.420;20.298;2023-02-15T16:19:05;19.67;;;5.95;;
70297;SDS011;57702;44.420;20.298;2023-02-15T16:21:33;53.10;;;10.98;;
70297;SDS011;57702;44.420;20.298;2023-02-15T16:29:16;13.63;;;7.40;;
70297;SDS011;57702;44.420;20.298;2023-02-15T16:31:42;22.88;;;6.75;;
70297;SDS011;57702;44.420;20.298;2023-02-15T16:34:09;42.50;;;13.07;;
70297;SDS011;57702;44.420;20.298;2023-02-15T16:36:42;48.63;;;12.18;;
70297;SDS011;57702;44.420;20.298;2023-02-15T16:39:11;30.65;;;9.93;;
70297;SDS011;57702;44.420;20.298;2023-02-15T16:41:43;70.10;;;16.67;;
70297;SDS011;57702;44.420;20.298;2023-02-15T16:44:19;25.63;;;9.10;;
70297;SDS011;57702;44.420;20.298;2023-02-15T16:46:47;23.83;;;9.02;;
70297;SDS011;57702;44.420;20.298;2023-02-15T16:49:15;39.90;;;10.88;;
70297;SDS011;57702;44.420;20.298;2023-02-15T16:51:42;35.72;;;11.48;;
70297;SDS011;57702;44.420;20.298;2023-02-15T16:54:14;36.17;;;12.15;;
70297;SDS011;57702;44.420;20.298;2023-02-15T16:56:42;35.35;;;8.93;;
70297;SDS011;57702;44.420;20.298;2023-02-15T16:59:17;33.63;;;9.68;;
70297;SDS011;57702;44.420;20.298;2023-02-15T17:01:45;35.20;;;13.98;;
70297;SDS011;57702;44.420;20.298;2023-02-15T17:06:38;62.33;;;17.65;;
70297;SDS011;57702;44.420;20.298;2023-02-15T17:09:05;35.63;;;12.68;;
70297;SDS011;57702;44.420;20.298;2023-02-15T17:11:41;18.00;;;10.07;;
70297;SDS011;57702;44.420;20.298;2023-02-15T17:14:11;36.97;;;11.10;;
70297;SDS011;57702;44.420;20.298;2023-02-15T17:19:17;21.25;;;9.57;;
70297;SDS011;57702;44.420;20.298;2023-02-15T17:21:49;20.52;;;8.55;;
70297;SDS011;57702;44.420;20.298;2023-02-15T17:24:20;44.58;;;15.00;;
70297;SDS011;57702;44.420;20.298;2023-02-15T17:26:50;78.78;;;17.52;;
70297;SDS011;57702;44.420;20.298;2023-02-15T17:29:34;41.75;;;15.48;;
70297;SDS011;57702;44.420;20.298;2023-02-15T17:32:02;41.80;;;12.38;;
70297;SDS011;57702;44.420;20.298;2023-02-15T17:34:42;37.33;;;12.40;;
70297;SDS011;57702;44.420;20.298;2023-02-15T17:37:10;64.00;;;24.20;;
70297;SDS011;57702;44.420;20.298;2023-02-15T17:39:37;118.28;;;31.85;;